Terminal Aerodrome Forecast
Issued by NWS Shreveport, LA

Home | Current Version | Previous Version | Text Only | Print | Product List | Glossary On
Versions: 1 2 3 4 5 6 7 8 9 10 11 12 13
000
FTUS44 KSHV 201700 RRA
TAFGGG
TAF
KGGG 201744Z 2018/2118 15007KT P6SM SCT045
     FM210100 15005KT P6SM BKN060 BKN250
     FM210600 15005KT P6SM VCSH BKN060 OVC250
     FM211200 18004KT P6SM VCSH OVC050
     FM211500 21008KT P6SM OVC035=

USA.gov is the U.S. government's official web portal to all federal, state and local government web resources and services.